Time,TemperatureF,DewpointF,PressureIn,WindDirection,WindDirectionDegrees,WindSpeedMPH,WindSpeedGustMPH,Humidity,HourlyPrecipIn,Conditions,Clouds,dailyrainin,SolarRadiationWatts/m^2,SoftwareType,DateUTC
2013-12-17 11:11:00,53.0,18.0,-100.00,SSE,157,6.0,10.0,25,-99.99,,,0.00,140.000000,,2013-12-17 19:11:00,
2013-12-17 16:12:00,58.0,17.0,-100.00,SW,231,8.0,18.0,20,-99.99,,,0.00,265.000000,,2013-12-18 00:12:00,
2013-12-17 16:42:00,54.0,17.0,-100.00,SSW,196,7.0,15.0,23,-99.99,,,0.00,74.000000,,2013-12-18 00:42:00,
2013-12-17 16:52:00,54.0,17.0,-100.00,SSW,196,7.0,15.0,23,-99.99,,,0.00,74.000000,,2013-12-18 00:52:00,
2013-12-17 17:02:00,54.0,17.0,-100.00,SSW,196,7.0,15.0,23,-99.99,,,0.00,74.000000,,2013-12-18 01:02:00,
2013-12-17 17:11:00,54.0,17.0,-100.00,SSW,196,7.0,15.0,23,-99.99,,,0.00,74.000000,,2013-12-18 01:11:00,
2013-12-17 17:42:00,51.0,17.0,-100.00,South,181,8.0,12.0,26,0.00,,,0.00,3.000000,,2013-12-18 01:42:00,
2013-12-17 18:42:00,50.0,20.0,-100.00,SSW,201,9.0,15.0,30,-99.99,,,0.00,0.000000,,2013-12-18 02:42:00,
2013-12-17 18:52:00,50.0,20.0,-100.00,SSW,201,9.0,15.0,30,-99.99,,,0.00,0.000000,,2013-12-18 02:52:00,
2013-12-17 19:02:00,50.0,20.0,-100.00,SSW,201,9.0,15.0,30,-99.99,,,0.00,0.000000,,2013-12-18 03:02:00,
2013-12-17 19:44:00,48.0,18.0,-100.00,SW,225,5.0,10.0,30,-99.99,,,0.00,0.000000,,2013-12-18 03:44:00,
2013-12-17 19:53:00,48.0,18.0,-100.00,SW,225,5.0,10.0,30,-99.99,,,0.00,0.000000,,2013-12-18 03:53:00,
2013-12-17 20:03:00,48.0,18.0,-100.00,SW,225,5.0,10.0,30,-99.99,,,0.00,0.000000,,2013-12-18 04:03:00,
2013-12-17 20:13:00,48.0,18.0,-100.00,SW,225,5.0,10.0,30,-99.99,,,0.00,0.000000,,2013-12-18 04:13:00,
2013-12-17 22:42:00,45.0,20.0,-100.00,South,188,6.0,8.0,37,-99.99,,,0.00,0.000000,,2013-12-18 06:42:00,
2013-12-17 22:53:00,45.0,20.0,-100.00,South,188,6.0,8.0,37,-99.99,,,0.00,0.000000,,2013-12-18 06:53:00,
2013-12-17 23:02:00,45.0,20.0,-100.00,South,188,6.0,8.0,37,-99.99,,,0.00,0.000000,,2013-12-18 07:02:00,
2013-12-17 23:11:00,45.0,20.0,-100.00,South,188,6.0,8.0,37,-99.99,,,0.00,0.000000,,2013-12-18 07:11:00,
2013-12-17 23:42:00,43.0,19.0,-100.00,WSW,258,3.0,9.0,38,0.00,,,0.00,0.000000,,2013-12-18 07:42:00,
2013-12-17 23:53:00,43.0,19.0,-100.00,WSW,258,3.0,9.0,38,0.00,,,0.00,0.000000,,2013-12-18 07:53:00,